Time;durP1;ratioP1;P1;durP2;ratioP2;P2;SDS_P1;SDS_P2;PMS_P1;PMS_P2;Temp;Humidity;BMP_temperature;BMP_pressure;BME280_temperature;BME280_humidity;BME280_pressure;Samples;Min_cycle;Max_cycle;Signal;HPM_P1;HPM_P2
2021/12/18 00:00:07;;;;;;;2.10;1.77;;;;;;;4.33;100.00;102958.94;5012437;28;20487;-82
2021/12/18 00:02:36;;;;;;;2.53;2.07;;;;;;;4.40;100.00;102957.47;4997018;28;20049;-87
2021/12/18 00:05:05;;;;;;;3.40;2.00;;;;;;;4.37;100.00;102959.94;5001630;28;20099;-86
2021/12/18 00:07:34;;;;;;;4.23;2.20;;;;;;;4.39;100.00;102958.31;4990562;28;20459;-83
2021/12/18 00:10:03;;;;;;;3.70;2.10;;;;;;;4.38;100.00;102951.28;5017592;28;20056;-81
2021/12/18 00:12:30;;;;;;;5.27;1.90;;;;;;;4.38;100.00;102956.53;5000551;28;20539;-82
2021/12/18 00:14:56;;;;;;;3.90;2.30;;;;;;;4.39;100.00;102947.84;4999441;28;20068;-84
2021/12/18 00:17:25;;;;;;;4.50;2.23;;;;;;;4.41;100.00;102941.84;5000568;28;20049;-82
2021/12/18 00:19:52;;;;;;;2.50;1.70;;;;;;;4.38;100.00;102940.81;4997818;28;20759;-81
2021/12/18 00:22:18;;;;;;;3.20;2.20;;;;;;;4.38;100.00;102946.94;4981269;28;20052;-82
2021/12/18 00:24:45;;;;;;;2.70;1.70;;;;;;;4.32;100.00;102944.06;5004731;28;20041;-82
2021/12/18 00:27:12;;;;;;;2.90;1.70;;;;;;;4.35;100.00;102951.16;5008751;28;20041;-81
2021/12/18 00:29:38;;;;;;;2.93;2.17;;;;;;;4.35;100.00;102961.63;5010985;28;20466;-84
2021/12/18 00:32:05;;;;;;;3.53;2.00;;;;;;;4.35;100.00;102954.66;4986816;28;20061;-81
2021/12/18 00:34:32;;;;;;;2.87;2.00;;;;;;;4.37;100.00;102959.94;4986568;28;20034;-81
2021/12/18 00:36:58;;;;;;;3.97;1.97;;;;;;;4.38;100.00;102961.75;4998899;28;20518;-83
2021/12/18 00:39:27;;;;;;;4.37;2.40;;;;;;;4.37;100.00;102966.09;4998079;28;20052;-82
2021/12/18 00:42:07;;;;;;;6.07;2.50;;;;;;;4.44;100.00;102973.34;5000529;28;20502;-82
2021/12/18 00:44:34;;;;;;;4.27;2.40;;;;;;;4.34;100.00;102965.97;4998854;28;20674;-84
2021/12/18 00:47:01;;;;;;;3.37;1.90;;;;;;;4.33;100.00;102963.28;4999923;28;20499;-81
2021/12/18 00:49:28;;;;;;;3.33;1.70;;;;;;;4.34;100.00;102965.97;4991972;28;20045;-84
2021/12/18 00:51:54;;;;;;;3.30;2.30;;;;;;;4.41;100.00;102960.16;4990191;28;20061;-81
2021/12/18 00:54:21;;;;;;;2.97;2.10;;;;;;;4.41;100.00;102962.78;4997408;28;20045;-84
2021/12/18 00:56:47;;;;;;;4.13;2.20;;;;;;;4.37;100.00;102954.72;5013782;28;20111;-82
2021/12/18 00:59:14;;;;;;;4.00;2.03;;;;;;;4.46;100.00;102960.38;5013453;28;20037;-82
2021/12/18 01:01:41;;;;;;;3.20;2.17;;;;;;;4.38;100.00;102967.88;5011278;28;20107;-81
2021/12/18 01:04:09;;;;;;;2.90;2.03;;;;;;;4.36;100.00;102959.06;5013804;28;20052;-82
2021/12/18 01:06:36;;;;;;;2.97;1.70;;;;;;;4.33;100.00;102953.72;5013091;28;20046;-84
2021/12/18 01:09:03;;;;;;;3.63;1.97;;;;;;;4.34;100.00;102952.88;4995002;28;20049;-83
2021/12/18 01:11:35;;;;;;;4.10;2.20;;;;;;;4.39;100.00;102951.34;5014528;28;20487;-83
2021/12/18 01:24:51;;;;;;;2.67;1.97;;;;;;;4.36;100.00;102922.41;5016314;28;20453;-84
2021/12/18 01:27:19;;;;;;;2.77;1.90;;;;;;;4.38;100.00;102912.94;5000706;28;20060;-81
2021/12/18 01:29:46;;;;;;;3.57;2.37;;;;;;;4.48;100.00;102922.03;5016205;28;20045;-84
2021/12/18 01:32:14;;;;;;;4.00;2.17;;;;;;;4.49;100.00;102927.34;5008384;28;20045;-81
2021/12/18 01:34:40;;;;;;;3.50;2.10;;;;;;;4.41;100.00;102928.75;4997687;28;20038;-83
2021/12/18 01:37:07;;;;;;;3.27;2.07;;;;;;;4.33;100.00;102927.53;4993021;28;20046;-82
2021/12/18 01:39:33;;;;;;;4.77;2.53;;;;;;;4.31;100.00;102923.97;5020005;28;20088;-81
2021/12/18 01:51:16;;;;;;;3.93;2.80;;;;;;;4.41;100.00;102933.97;5262123;22;20028;31
2021/12/18 01:51:45;;;;;;;4.60;2.73;;;;;;;4.38;100.00;102941.72;4977674;28;20042;-83
2021/12/18 01:54:13;;;;;;;4.80;2.53;;;;;;;4.42;100.00;102943.63;4979900;28;20092;-82
2021/12/18 01:56:39;;;;;;;3.20;2.47;;;;;;;4.40;100.00;102945.28;5005315;28;20047;-82
2021/12/18 01:59:09;;;;;;;4.87;3.03;;;;;;;4.42;100.00;102948.84;5005481;28;20048;-82
2021/12/18 02:01:37;;;;;;;4.30;2.50;;;;;;;4.25;100.00;102942.03;4979603;28;20038;-86
2021/12/18 02:04:04;;;;;;;4.10;2.80;;;;;;;4.32;100.00;102951.03;4982159;28;20042;-84
2021/12/18 02:06:31;;;;;;;4.60;2.83;;;;;;;4.29;100.00;102943.97;5007137;28;20041;-83
2021/12/18 02:08:58;;;;;;;3.60;2.70;;;;;;;4.27;100.00;102949.94;4993955;28;20093;-83
2021/12/18 02:14:20;;;;;;;3.23;2.20;;;;;;;4.26;100.00;102941.19;5004352;28;20038;-83
2021/12/18 02:22:20;;;;;;;4.53;2.43;;;;;;;4.22;100.00;102939.28;4988685;28;20099;-86
2021/12/18 02:24:47;;;;;;;3.57;1.97;;;;;;;4.32;100.00;102951.03;4977145;28;20539;-83
2021/12/18 02:27:14;;;;;;;3.10;1.97;;;;;;;4.32;100.00;102948.41;4997628;28;20060;-83
2021/12/18 02:29:42;;;;;;;2.93;2.10;;;;;;;4.29;100.00;102950.88;4989871;28;20042;-82
2021/12/18 02:32:10;;;;;;;3.30;2.10;;;;;;;4.44;100.00;102941.94;4978382;28;20105;-85
2021/12/18 02:34:39;;;;;;;5.67;2.13;;;;;;;4.32;100.00;102941.47;4977401;28;20041;-84
2021/12/18 02:37:08;;;;;;;3.50;2.20;;;;;;;4.28;100.00;102928.16;4989605;28;20049;-85
2021/12/18 02:50:40;;;;;;;3.83;2.30;;;;;;;4.45;100.00;102912.31;5008653;28;20101;-86
2021/12/18 02:53:07;;;;;;;4.20;2.23;;;;;;;4.38;100.00;102907.69;4961353;28;20520;-86
2021/12/18 02:55:33;;;;;;;4.27;2.30;;;;;;;4.43;100.00;102903.53;4976290;28;20399;-85
2021/12/18 02:58:00;;;;;;;3.43;1.90;;;;;;;4.41;100.00;102899.06;4975252;28;20066;-85
2021/12/18 03:00:28;;;;;;;2.57;1.60;;;;;;;4.32;100.00;102901.31;4960145;28;20136;-85
2021/12/18 03:02:56;;;;;;;3.03;1.93;;;;;;;4.38;100.00;102901.56;4994003;28;20076;-85
2021/12/18 03:05:35;;;;;;;3.10;1.90;;;;;;;4.31;100.00;102896.91;4971264;28;20052;-84
2021/12/18 03:08:11;;;;;;;3.30;2.00;;;;;;;4.27;100.00;102885.41;4984100;28;20042;-87
2021/12/18 03:24:29;;;;;;;3.70;2.10;;;;;;;4.30;100.00;102889.91;5005001;28;20045;-84
2021/12/18 03:26:56;;;;;;;5.75;2.03;;;;;;;4.33;100.00;102898.75;5005023;28;20046;-85
2021/12/18 03:29:22;;;;;;;4.23;2.30;;;;;;;4.35;100.00;102898.81;4978345;28;20046;-85
2021/12/18 03:31:49;;;;;;;2.57;1.57;;;;;;;4.34;100.00;102891.78;5002679;28;20495;-85
2021/12/18 03:34:16;;;;;;;4.63;2.10;;;;;;;4.47;100.00;102899.31;4987025;28;20050;-84
2021/12/18 03:36:42;;;;;;;3.70;1.70;;;;;;;4.41;100.00;102892.09;4988258;28;20053;-84
2021/12/18 03:39:09;;;;;;;3.83;2.10;;;;;;;4.42;100.00;102891.28;4986537;28;20053;-84
2021/12/18 03:41:36;;;;;;;2.83;1.93;;;;;;;4.38;100.00;102888.50;5002017;28;20050;-85
2021/12/18 03:44:03;;;;;;;2.80;1.73;;;;;;;4.36;100.00;102888.41;4993490;28;20044;-86
2021/12/18 03:46:29;;;;;;;2.70;2.00;;;;;;;4.38;100.00;102891.09;4994601;28;20042;-86
2021/12/18 03:48:56;;;;;;;2.43;1.50;;;;;;;4.38;100.00;102883.25;4983496;28;20053;-84
2021/12/18 03:51:23;;;;;;;3.40;1.97;;;;;;;4.36;100.00;102875.31;4985290;28;20060;-85
2021/12/18 03:53:50;;;;;;;3.80;1.80;;;;;;;4.40;100.00;102876.34;4982991;28;20072;-86
2021/12/18 03:56:17;;;;;;;2.70;1.77;;;;;;;4.40;100.00;102879.84;4984392;28;20401;-85
2021/12/18 03:58:44;;;;;;;3.03;1.90;;;;;;;4.40;100.00;102877.25;4994991;28;20068;-84
2021/12/18 04:01:11;;;;;;;2.80;1.70;;;;;;;4.46;100.00;102892.31;5002301;28;20060;-84
2021/12/18 04:03:38;;;;;;;3.43;1.60;;;;;;;4.38;100.00;102878.91;4984066;28;20045;-85
2021/12/18 04:06:05;;;;;;;3.57;2.43;;;;;;;4.40;100.00;102890.31;4985957;28;20045;-84
2021/12/18 04:08:32;;;;;;;2.67;1.57;;;;;;;4.41;100.00;102881.63;4983791;28;20041;-84
2021/12/18 04:10:58;;;;;;;2.97;1.87;;;;;;;4.42;100.00;102877.28;4998992;28;20046;-85
2021/12/18 04:13:25;;;;;;;2.53;1.70;;;;;;;4.42;100.00;102890.38;5004674;28;20515;-84
2021/12/18 04:15:51;;;;;;;3.47;1.50;;;;;;;4.45;100.00;102883.53;4994812;28;20044;-83
2021/12/18 04:18:18;;;;;;;2.27;1.60;;;;;;;4.44;100.00;102881.75;5012287;28;20045;-84
2021/12/18 04:20:45;;;;;;;2.50;1.40;;;;;;;4.45;100.00;102886.16;4983632;28;20034;-84
2021/12/18 04:23:12;;;;;;;3.17;1.50;;;;;;;4.49;100.00;102882.84;5000092;28;20041;-83
2021/12/18 04:25:40;;;;;;;3.67;1.60;;;;;;;4.51;100.00;102881.16;4984412;28;20676;-85
2021/12/18 04:28:07;;;;;;;2.83;1.50;;;;;;;4.50;100.00;102879.38;5016910;28;20048;-85
2021/12/18 04:30:33;;;;;;;2.83;1.93;;;;;;;4.49;100.00;102882.84;4983964;28;20450;-86
2021/12/18 04:33:00;;;;;;;2.00;1.20;;;;;;;4.50;100.00;102883.72;4983765;28;20108;-85
2021/12/18 04:35:30;;;;;;;2.60;1.40;;;;;;;4.48;100.00;102882.78;4999830;28;20038;-86
2021/12/18 04:37:56;;;;;;;1.87;1.67;;;;;;;4.49;100.00;102881.94;5000071;28;20068;-84
2021/12/18 04:40:26;;;;;;;4.57;1.80;;;;;;;4.49;100.00;102882.84;5000064;28;20127;-85
2021/12/18 04:42:53;;;;;;;2.53;1.60;;;;;;;4.52;100.00;102885.56;4992979;28;20041;-87
2021/12/18 04:45:20;;;;;;;1.47;1.07;;;;;;;4.50;100.00;102876.78;4999248;28;20042;-83
2021/12/18 04:47:47;;;;;;;1.87;1.07;;;;;;;4.47;100.00;102879.28;5016676;28;20067;-86
2021/12/18 04:50:15;;;;;;;2.47;1.50;;;;;;;4.53;100.00;102882.13;4982214;28;20132;-87
2021/12/18 04:52:41;;;;;;;2.23;1.30;;;;;;;4.53;100.00;102876.00;5015120;28;20293;-87
2021/12/18 04:55:08;;;;;;;2.10;1.40;;;;;;;4.53;100.00;102876.00;5003554;28;20041;-86
2021/12/18 04:57:35;;;;;;;2.00;1.30;;;;;;;4.52;100.00;102875.09;4999699;28;20441;-86
2021/12/18 05:00:04;;;;;;;2.97;1.43;;;;;;;4.52;100.00;102875.09;4996714;28;20041;-85
2021/12/18 05:02:37;;;;;;;2.47;1.50;;;;;;;4.49;100.00;102880.22;4998139;28;20045;-86
2021/12/18 05:05:16;;;;;;;2.27;1.30;;;;;;;4.52;100.00;102877.72;5004413;28;20037;-87
2021/12/18 05:07:43;;;;;;;2.53;1.30;;;;;;;4.56;100.00;102864.78;5001408;28;20041;-85
2021/12/18 05:10:10;;;;;;;2.63;1.20;;;;;;;4.58;100.00;102882.31;4984027;28;20045;-85
2021/12/18 05:12:37;;;;;;;1.87;1.37;;;;;;;4.53;100.00;102882.13;5001307;28;20041;-84
2021/12/18 05:15:07;;;;;;;1.77;1.10;;;;;;;4.53;100.00;102876.00;4997347;28;20037;-86
2021/12/18 05:17:34;;;;;;;2.50;1.30;;;;;;;4.53;100.00;102876.00;4982300;28;20510;-87
2021/12/18 05:20:00;;;;;;;2.37;1.17;;;;;;;4.55;100.00;102865.59;4981346;28;20045;-84
2021/12/18 05:22:27;;;;;;;2.00;1.30;;;;;;;4.61;100.00;102866.72;4999433;28;20037;-87
2021/12/18 05:24:54;;;;;;;1.93;1.13;;;;;;;4.57;100.00;102858.69;4986314;28;20038;-87
2021/12/18 05:27:20;;;;;;;3.00;1.33;;;;;;;4.56;100.00;102857.81;4996862;28;20068;-88
2021/12/18 05:29:47;;;;;;;2.77;1.30;;;;;;;4.52;100.00;102855.88;4997289;28;20057;-87
2021/12/18 05:32:14;;;;;;;2.27;1.30;;;;;;;4.52;100.00;102867.25;4999614;28;20059;-87
2021/12/18 05:34:41;;;;;;;3.00;1.47;;;;;;;4.57;100.00;102862.19;4997474;28;20099;-87
2021/12/18 05:37:32;;;;;;;3.30;1.27;;;;;;;4.61;100.00;102860.59;5016340;28;20049;-87
2021/12/18 05:39:59;;;;;;;2.07;1.20;;;;;;;4.62;100.00;102849.28;5002880;28;20109;-88
2021/12/18 05:42:36;;;;;;;1.77;1.10;;;;;;;4.61;100.00;102844.88;4995749;28;20041;-87
2021/12/18 05:45:05;;;;;;;2.77;1.03;;;;;;;4.60;100.00;102840.47;4997038;28;20052;-87
2021/12/18 05:47:31;;;;;;;2.90;1.37;;;;;;;4.59;100.00;102846.56;4995164;28;20071;-88
2021/12/18 05:49:58;;;;;;;2.33;1.13;;;;;;;4.59;100.00;102846.56;4993971;28;20069;-88
2021/12/18 05:52:26;;;;;;;1.53;1.27;;;;;;;4.60;100.00;102840.47;4994144;28;20205;-89
2021/12/18 05:54:52;;;;;;;2.53;1.30;;;;;;;4.59;100.00;102833.47;4994038;28;20053;-87
2021/12/18 05:57:19;;;;;;;77.87;40.63;;;;;;;4.64;100.00;102826.69;4989810;28;20214;-87
2021/12/18 05:59:46;;;;;;;21.37;9.70;;;;;;;4.63;100.00;102819.66;4991933;28;20061;-89
2021/12/18 06:02:13;;;;;;;14.90;8.80;;;;;;;4.63;100.00;102827.53;5014921;28;20045;-89
2021/12/18 06:04:42;;;;;;;8.83;4.40;;;;;;;4.58;100.00;102818.59;4999247;28;20059;-91
2021/12/18 06:07:16;;;;;;;3.27;1.93;;;;;;;4.61;100.00;102813.47;4999705;28;20049;-88
2021/12/18 06:09:43;;;;;;;1.60;0.93;;;;;;;4.63;100.00;102824.91;4997179;28;20093;-89
2021/12/18 06:12:11;;;;;;;2.83;1.63;;;;;;;4.63;100.00;102817.94;4995276;28;20053;-85
2021/12/18 06:14:37;;;;;;;2.77;1.87;;;;;;;4.62;100.00;102825.72;4977150;28;20118;-84
2021/12/18 06:17:04;;;;;;;6.40;5.33;;;;;;;4.58;100.00;102826.44;4980693;28;20084;-85
2021/12/18 06:19:30;;;;;;;2.73;1.80;;;;;;;4.65;100.00;102823.22;4977750;28;20557;-84
2021/12/18 06:21:57;;;;;;;2.70;1.30;;;;;;;4.63;100.00;102815.31;4980927;28;20435;-85
2021/12/18 06:24:26;;;;;;;1.60;1.20;;;;;;;4.60;100.00;102827.38;4994135;28;20068;-85
2021/12/18 06:26:53;;;;;;;2.90;1.70;;;;;;;4.61;100.00;102819.59;4978687;28;20506;-86
2021/12/18 06:29:19;;;;;;;3.33;1.93;;;;;;;4.68;100.00;102810.25;4993915;28;20043;-84
2021/12/18 06:31:46;;;;;;;5.57;5.07;;;;;;;4.69;100.00;102814.66;5009031;28;20057;-85
2021/12/18 06:34:13;;;;;;;10.73;9.70;;;;;;;4.68;100.00;102815.47;5011352;28;20525;-85
2021/12/18 06:36:40;;;;;;;4.13;3.80;;;;;;;4.63;100.00;102817.94;5013009;28;20041;-85
2021/12/18 06:39:07;;;;;;;2.37;2.03;;;;;;;4.65;100.00;102818.88;4995873;28;20092;-86
2021/12/18 06:41:34;;;;;;;3.10;2.80;;;;;;;4.65;100.00;102810.16;4980915;28;20041;-83
2021/12/18 06:44:01;;;;;;;2.90;1.50;;;;;;;4.65;100.00;102813.66;4994625;28;20044;-84
2021/12/18 06:46:28;;;;;;;3.50;2.03;;;;;;;4.66;100.00;102811.94;4978183;28;20037;-83
2021/12/18 06:48:54;;;;;;;2.23;1.50;;;;;;;4.63;100.00;102811.81;4995181;28;20040;-84
2021/12/18 06:51:27;;;;;;;2.83;1.57;;;;;;;4.68;100.00;102812.88;4995388;28;20049;-84
2021/12/18 06:53:56;;;;;;;2.63;1.67;;;;;;;4.67;100.00;102811.09;4996024;28;20682;-84
2021/12/18 06:56:23;;;;;;;2.07;1.43;;;;;;;4.57;100.00;102814.19;4981575;28;20129;-84
2021/12/18 06:58:50;;;;;;;2.63;1.77;;;;;;;4.62;100.00;102812.63;4991695;28;20053;-84
2021/12/18 07:01:16;;;;;;;1.53;1.10;;;;;;;4.60;100.00;102809.06;4983920;28;20395;-84
2021/12/18 07:03:44;;;;;;;1.80;1.37;;;;;;;4.56;100.00;102802.84;4998390;28;20065;-85
2021/12/18 07:06:11;;;;;;;2.70;1.80;;;;;;;4.63;100.00;102806.59;4997389;28;20037;-85
2021/12/18 07:08:38;;;;;;;1.90;1.47;;;;;;;4.68;100.00;102795.44;4979891;28;20045;-85
2021/12/18 07:11:05;;;;;;;3.60;2.67;;;;;;;4.59;100.00;102795.09;4984588;28;20048;-84
2021/12/18 07:13:31;;;;;;;2.17;1.70;;;;;;;4.59;100.00;102791.56;4981257;28;20045;-85
2021/12/18 07:15:59;;;;;;;1.50;1.30;;;;;;;4.53;100.00;102787.88;5001854;28;20040;-83
2021/12/18 07:18:26;;;;;;;1.87;1.00;;;;;;;4.44;100.00;102787.53;5001475;28;20049;-84
2021/12/18 07:20:53;;;;;;;3.50;2.43;;;;;;;4.45;100.00;102786.69;4999484;28;20053;-84
2021/12/18 07:23:21;;;;;;;2.60;1.80;;;;;;;4.40;100.00;102772.56;4982708;28;20045;-85
2021/12/18 07:25:48;;;;;;;2.93;1.83;;;;;;;4.45;100.00;102776.22;4985616;28;20048;-83
2021/12/18 07:28:14;;;;;;;2.27;1.63;;;;;;;4.41;100.00;102776.94;4979633;28;20513;-83
2021/12/18 07:30:46;;;;;;;4.90;3.00;;;;;;;4.35;100.00;102779.31;5013295;28;20099;-84
2021/12/18 07:33:16;;;;;;;3.07;2.10;;;;;;;4.41;100.00;102773.44;5013252;28;20057;-84
2021/12/18 07:35:43;;;;;;;3.07;1.80;;;;;;;4.46;100.00;102764.94;4987947;28;20301;-86
2021/12/18 07:38:10;;;;;;;3.80;2.17;;;;;;;4.49;100.00;102772.91;4983637;28;20736;-82
2021/12/18 07:40:37;;;;;;;3.00;2.20;;;;;;;4.49;100.00;102758.94;4981919;28;20041;-85
2021/12/18 07:43:04;;;;;;;3.73;2.63;;;;;;;4.52;100.00;102754.69;4983576;28;20049;-85
2021/12/18 07:45:33;;;;;;;8.77;6.03;;;;;;;4.55;100.00;102756.56;4984360;28;20041;-85
2021/12/18 07:48:01;;;;;;;6.93;4.20;;;;;;;4.60;100.00;102754.97;4997831;28;20455;-84
2021/12/18 07:50:32;;;;;;;5.70;3.77;;;;;;;4.54;100.00;102754.78;4985552;28;20053;-85
2021/12/18 07:52:59;;;;;;;4.20;2.63;;;;;;;4.55;100.00;102758.28;5012040;28;20049;-85
2021/12/18 07:55:28;;;;;;;3.73;2.00;;;;;;;4.51;100.00;102762.47;4982054;28;20037;-84
2021/12/18 07:57:55;;;;;;;3.67;2.10;;;;;;;4.61;100.00;102756.75;4999333;28;20490;-84
2021/12/18 08:00:22;;;;;;;2.57;1.50;;;;;;;4.52;100.00;102757.31;4998730;28;20052;-84
2021/12/18 08:02:48;;;;;;;4.63;2.23;;;;;;;4.51;100.00;102752.91;4985929;28;20110;-84
2021/12/18 08:05:15;;;;;;;4.03;2.30;;;;;;;4.57;100.00;102760.13;5002828;28;20061;-84
2021/12/18 08:07:42;;;;;;;3.50;2.13;;;;;;;4.63;100.00;102762.97;5001327;28;20076;-84
2021/12/18 08:10:09;;;;;;;6.17;5.00;;;;;;;4.60;100.00;102760.22;4983213;28;20140;-85
2021/12/18 08:12:36;;;;;;;3.47;2.20;;;;;;;4.57;100.00;102767.97;4982745;28;20045;-82
2021/12/18 08:15:04;;;;;;;2.63;1.20;;;;;;;4.64;100.00;102767.38;4985452;28;20054;-84
2021/12/18 08:17:34;;;;;;;2.83;1.63;;;;;;;4.64;100.00;102772.59;4998639;28;20095;-83
2021/12/18 08:20:02;;;;;;;3.03;1.87;;;;;;;4.61;100.00;102772.47;4980034;28;20107;-84
2021/12/18 08:22:29;;;;;;;2.30;1.43;;;;;;;4.59;100.00;102775.88;4981107;28;20049;-85
2021/12/18 08:24:55;;;;;;;2.90;1.63;;;;;;;4.61;100.00;102780.31;4979853;28;20041;-84
2021/12/18 08:27:22;;;;;;;3.83;2.67;;;;;;;4.54;100.00;102775.72;4983328;28;20057;-84
2021/12/18 08:29:51;;;;;;;4.00;2.40;;;;;;;4.57;100.00;102777.53;5011973;28;20060;-86
2021/12/18 08:32:19;;;;;;;2.70;1.80;;;;;;;4.70;100.00;102774.53;4977295;28;20088;-84
2021/12/18 08:34:49;;;;;;;4.40;2.30;;;;;;;4.65;100.00;102778.72;4999822;28;20054;-83
2021/12/18 08:37:17;;;;;;;4.60;2.43;;;;;;;4.58;100.00;102768.84;5005334;28;20037;-86
2021/12/18 08:39:44;;;;;;;5.47;2.70;;;;;;;4.65;100.00;102771.75;4978938;28;20050;-86
2021/12/18 08:42:10;;;;;;;5.83;2.63;;;;;;;4.59;100.00;102771.53;4978308;28;20052;-86
2021/12/18 08:44:41;;;;;;;4.97;2.80;;;;;;;4.65;100.00;102768.25;4996072;28;20071;-85
2021/12/18 08:47:08;;;;;;;8.03;3.80;;;;;;;4.61;100.00;102776.81;4981515;28;20038;-85
2021/12/18 08:49:35;;;;;;;5.20;2.90;;;;;;;4.59;100.00;102773.25;4980439;28;20052;-85
2021/12/18 08:52:02;;;;;;;5.87;3.17;;;;;;;4.57;100.00;102764.47;4997622;28;20045;-85
2021/12/18 08:54:29;;;;;;;4.67;3.20;;;;;;;4.56;100.00;102767.91;4979929;28;20042;-85
2021/12/18 08:57:08;;;;;;;5.90;3.60;;;;;;;4.61;100.00;102764.59;4972165;28;20049;-85
2021/12/18 08:59:35;;;;;;;8.10;3.50;;;;;;;4.68;100.00;102773.59;4980299;28;20128;-85
2021/12/18 09:02:07;;;;;;;5.50;3.13;;;;;;;4.67;100.00;102772.69;4980909;28;20049;-85
2021/12/18 09:04:34;;;;;;;6.57;3.83;;;;;;;4.67;100.00;102774.44;4979512;28;20521;-86
2021/12/18 09:07:02;;;;;;;6.50;4.00;;;;;;;4.67;100.00;102777.94;4980778;28;20046;-85
2021/12/18 09:09:34;;;;;;;7.37;3.33;;;;;;;4.75;100.00;102773.88;4980624;28;20049;-85
2021/12/18 09:12:00;;;;;;;6.00;3.57;;;;;;;4.80;100.00;102769.72;4981508;28;20076;-85
2021/12/18 09:14:27;;;;;;;5.27;3.03;;;;;;;4.79;100.00;102775.78;4979272;28;20037;-85
2021/12/18 09:16:54;;;;;;;6.03;2.87;;;;;;;4.82;100.00;102759.28;4977882;28;20054;-85
2021/12/18 09:19:21;;;;;;;5.53;3.00;;;;;;;4.77;100.00;102763.47;4976711;28;20420;-85
2021/12/18 09:21:47;;;;;;;5.13;2.43;;;;;;;4.67;100.00;102762.22;4977071;28;20089;-87
2021/12/18 09:24:14;;;;;;;3.93;2.40;;;;;;;4.74;100.00;102759.00;4972785;28;20045;-86
2021/12/18 09:26:41;;;;;;;4.57;2.43;;;;;;;4.81;100.00;102760.13;4996471;28;20723;-86
2021/12/18 09:29:07;;;;;;;4.73;2.60;;;;;;;4.85;100.00;102751.53;4995005;28;20111;-85
2021/12/18 09:31:34;;;;;;;3.23;2.13;;;;;;;4.83;100.00;102740.13;4996232;28;20060;-86
2021/12/18 09:34:01;;;;;;;4.63;2.70;;;;;;;4.87;100.00;102742.00;4979062;28;20388;-85
2021/12/18 09:36:28;;;;;;;4.67;2.20;;;;;;;4.82;100.00;102737.44;4980787;28;20048;-85
2021/12/18 09:38:58;;;;;;;5.20;3.30;;;;;;;4.80;100.00;102740.03;4976058;28;20050;-87
2021/12/18 09:41:25;;;;;;;5.43;3.07;;;;;;;4.78;100.00;102737.31;4961161;28;20052;-86
2021/12/18 09:43:52;;;;;;;6.20;3.30;;;;;;;4.83;100.00;102729.66;4996857;28;20059;-87
2021/12/18 09:46:19;;;;;;;5.63;3.27;;;;;;;4.88;100.00;102724.59;4980164;28;20132;-86
2021/12/18 09:48:45;;;;;;;5.00;2.60;;;;;;;4.84;100.00;102723.56;4978999;28;20057;-87
2021/12/18 09:51:23;;;;;;;4.53;2.67;;;;;;;4.82;100.00;102730.50;4995511;28;20056;-88
2021/12/18 09:53:51;;;;;;;5.27;2.80;;;;;;;4.79;100.00;102720.81;4979650;28;20052;-86
2021/12/18 09:56:18;;;;;;;5.50;3.07;;;;;;;4.82;100.00;102708.66;4979792;28;20096;-86
2021/12/18 09:58:46;;;;;;;4.10;2.43;;;;;;;4.87;100.00;102712.31;4994246;28;20060;-86
2021/12/18 10:01:13;;;;;;;6.10;3.40;;;;;;;4.82;100.00;102712.16;4995791;28;20713;-86
2021/12/18 10:03:53;;;;;;;6.33;3.43;;;;;;;4.82;100.00;102709.53;4978920;28;20462;-85
2021/12/18 10:06:49;;;;;;;5.93;2.80;;;;;;;4.79;100.00;102710.31;4979982;28;20045;-87
2021/12/18 10:09:19;;;;;;;;;;;;;;;4.81;100.00;102702.53;4979115;28;20052;-86
2021/12/18 10:11:54;;;;;;;5.20;2.90;;;;;;;4.86;100.00;102700.03;4995887;28;20015;-86
2021/12/18 10:14:36;;;;;;;5.60;2.97;;;;;;;4.91;100.00;102695.88;4975639;28;20049;-85
2021/12/18 10:17:05;;;;;;;6.07;3.60;;;;;;;4.88;100.00;102694.06;4993938;28;20100;-84
2021/12/18 10:19:34;;;;;;;4.17;2.60;;;;;;;4.78;100.00;102698.03;5006215;28;20093;-85
2021/12/18 10:22:07;;;;;;;6.43;3.37;;;;;;;4.82;100.00;102683.34;4998248;28;20053;-85
2021/12/18 10:24:36;;;;;;;4.10;2.60;;;;;;;4.88;100.00;102677.44;4978601;28;20128;-87
2021/12/18 10:27:16;;;;;;;4.90;2.80;;;;;;;4.84;100.00;102671.19;4976338;28;20042;-86
2021/12/18 10:29:43;;;;;;;5.60;3.50;;;;;;;4.97;100.00;102677.75;4988338;28;20041;-85
2021/12/18 10:32:12;;;;;;;5.50;3.07;;;;;;;4.91;100.00;102667.06;4995872;28;20053;-86
2021/12/18 10:34:40;;;;;;;6.47;4.40;;;;;;;4.88;100.00;102670.47;4978281;28;20107;-86
2021/12/18 10:37:17;;;;;;;5.07;3.70;;;;;;;4.87;100.00;102668.66;4996421;28;20049;-85
2021/12/18 10:39:53;;;;;;;5.72;3.30;;;;;;;4.86;100.00;102661.66;4997189;28;20067;-85
2021/12/18 10:42:40;;;;;;;5.60;3.37;;;;;;;4.99;100.00;102665.59;4985144;28;20056;-87
2021/12/18 10:45:12;;;;;;;3.60;2.47;;;;;;;4.92;100.00;102659.25;4991839;28;20116;-85
2021/12/18 10:47:52;;;;;;;3.50;2.73;;;;;;;4.95;100.00;102659.34;5011673;28;20533;-84
2021/12/18 10:50:51;;;;;;;3.47;2.20;;;;;;;4.99;100.00;102662.97;5008733;28;20051;-86
2021/12/18 10:53:25;;;;;;;3.80;2.30;;;;;;;4.94;100.00;102659.31;4975564;28;20089;-87
2021/12/18 10:56:02;;;;;;;3.50;2.40;;;;;;;4.95;100.00;102645.38;4996030;28;20509;-85
2021/12/18 10:58:34;;;;;;;4.43;2.40;;;;;;;4.96;100.00;102649.75;4978837;28;20449;-86
2021/12/18 11:01:09;;;;;;;4.17;2.80;;;;;;;5.07;100.00;102645.81;4979679;28;20049;-86
2021/12/18 11:03:43;;;;;;;4.57;3.10;;;;;;;5.03;100.00;102636.94;4994744;28;20079;-85
2021/12/18 11:06:29;;;;;;;4.53;3.23;;;;;;;5.05;100.00;102630.03;4976030;28;20110;-85
2021/12/18 11:09:04;;;;;;;3.93;2.67;;;;;;;5.09;100.00;102629.28;4978233;28;20049;-86
2021/12/18 11:14:11;;;;;;;4.32;3.25;;;;;;;5.13;100.00;102621.50;5009909;28;20076;-85
2021/12/18 11:16:39;;;;;;;5.73;3.23;;;;;;;5.16;100.00;102611.16;4960439;28;20505;-85
2021/12/18 11:19:13;;;;;;;4.77;2.60;;;;;;;5.16;100.00;102609.41;4998052;28;20049;-85
2021/12/18 11:21:51;;;;;;;3.90;2.58;;;;;;;5.15;100.00;102602.41;4999120;28;20124;-86
2021/12/18 11:24:21;;;;;;;4.13;3.03;;;;;;;5.15;100.00;102598.91;4994897;28;20046;-85
2021/12/18 11:27:03;;;;;;;4.43;3.10;;;;;;;5.22;100.00;102607.00;4993384;28;20046;-85
2021/12/18 11:29:50;;;;;;;4.60;3.07;;;;;;;5.21;100.00;102597.38;4975018;28;20104;-86
2021/12/18 11:32:20;;;;;;;3.60;2.20;;;;;;;5.20;100.00;102584.19;5007721;28;20052;-86
2021/12/18 11:34:49;;;;;;;3.07;2.07;;;;;;;5.23;100.00;102592.19;4978277;28;20050;-85
2021/12/18 11:37:17;;;;;;;3.47;2.47;;;;;;;5.27;100.00;102584.44;4980418;28;20045;-85
2021/12/18 11:39:44;;;;;;;3.83;2.30;;;;;;;5.30;100.00;102571.47;4977978;28;20108;-86
2021/12/18 11:42:13;;;;;;;4.37;2.90;;;;;;;5.29;100.00;102574.91;4994478;28;20041;-86
2021/12/18 11:44:45;;;;;;;4.50;2.90;;;;;;;5.31;100.00;102556.63;4991916;28;20475;-87
2021/12/18 11:47:26;;;;;;;3.53;2.50;;;;;;;5.31;100.00;102559.25;4975410;28;20038;-86
2021/12/18 11:49:56;;;;;;;6.27;3.20;;;;;;;5.25;100.00;102566.91;4990653;28;20124;-85
2021/12/18 11:52:23;;;;;;;3.07;2.20;;;;;;;5.27;100.00;102558.25;4972880;28;20049;-85
2021/12/18 11:54:53;;;;;;;4.30;2.90;;;;;;;5.30;100.00;102565.34;4994608;28;20042;-85
2021/12/18 11:57:43;;;;;;;4.33;2.70;;;;;;;5.30;100.00;102547.88;4997521;28;20045;-85
2021/12/18 12:00:17;;;;;;;3.37;2.70;;;;;;;5.29;100.00;102540.81;4982238;28;20045;-85
2021/12/18 12:02:52;;;;;;;5.37;3.73;;;;;;;5.32;100.00;102537.44;4998079;28;20053;-84
2021/12/18 12:05:37;;;;;;;4.30;2.80;;;;;;;5.34;100.00;102533.13;4995533;28;20091;-85
2021/12/18 12:08:25;;;;;;;6.03;3.67;;;;;;;5.35;100.00;102529.66;4998134;28;20053;-85
2021/12/18 12:11:17;;;;;;;5.83;3.53;;;;;;;5.35;100.00;102527.03;4995376;28;20073;-85
2021/12/18 12:14:02;;;;;;;4.77;3.70;;;;;;;5.45;100.00;102530.81;4995281;28;20886;-85
2021/12/18 12:16:44;;;;;;;4.70;3.40;;;;;;;5.43;100.00;102532.50;4999027;28;20045;-84
2021/12/18 12:19:12;;;;;;;5.50;3.33;;;;;;;5.42;100.00;102526.38;4997338;28;20037;-84
2021/12/18 12:21:47;;;;;;;4.97;3.17;;;;;;;5.44;100.00;102526.41;4999122;28;20045;-86
2021/12/18 12:24:16;;;;;;;4.97;3.17;;;;;;;5.39;100.00;102510.56;4978686;28;20109;-85
2021/12/18 12:26:45;;;;;;;4.30;2.80;;;;;;;5.55;100.00;102511.91;4983954;28;20041;-86